Gorham, Kansas
Current Conditions -  °F | °C
As of 1:53 PM on Sunday 23 Nov 2014 (Local Time) from KRSL Reporting Station
Overcast Overcast  
Wind Chill: 33°   Ceiling: 7000
Heat Index: 42°   Visibility: 10mi
Dew Point: 38°   Wind: 21mph
Humidity: 85%   Direction: 350°N
Pressure: 29.55"   Gusts: 30mph
Location:  38.88°N, 99.02°W
Report Text: KRSL 231953Z AUTO 35018G26KT 10SM FEW043 SCT050 OVC070 06/03 A2955 RMK AO2 PK WND 35033/1901 RAE16 SLP008 P0001 T00560033
Loading
Personal Weather Stations






























Interactive Weather Map New forecast layout! Learn more

10-Day Weather Forecast

Advertisements
Track Severe Weather on mobile